Time;durP1;ratioP1;P1;durP2;ratioP2;P2;SDS_P1;SDS_P2;PMS_P1;PMS_P2;Temp;Humidity;BMP_temperature;BMP_pressure;BME280_temperature;BME280_humidity;BME280_pressure;Samples;Min_cycle;Max_cycle;Signal;HPM_P1;HPM_P2
2023/11/05 00:00:48;;;;;;;0.10;0.10;;;10.00;99.90;;;;;;5088646;28;20079;-81
2023/11/05 00:03:14;;;;;;;0.00;0.00;;;9.90;99.90;;;;;;5095219;28;20417;-83
2023/11/05 00:05:40;;;;;;;0.10;0.10;;;10.00;99.90;;;;;;5083613;28;20040;-83
2023/11/05 00:08:06;;;;;;;0.10;0.10;;;9.90;99.90;;;;;;5095933;28;20635;-84
2023/11/05 00:10:31;;;;;;;0.10;0.10;;;9.80;99.90;;;;;;5100289;28;20135;-86
2023/11/05 00:12:57;;;;;;;0.10;0.10;;;9.80;99.90;;;;;;5089260;28;20028;-82
2023/11/05 00:15:22;;;;;;;0.00;0.00;;;9.50;99.90;;;;;;5100424;28;20019;-84
2023/11/05 00:17:48;;;;;;;0.00;0.00;;;9.40;99.90;;;;;;5092240;28;20042;-83
2023/11/05 00:20:14;;;;;;;0.00;0.00;;;9.40;99.90;;;;;;5086958;28;20103;-84
2023/11/05 00:22:40;;;;;;;0.08;0.08;;;9.40;99.90;;;;;;5086581;28;20028;-85
2023/11/05 00:25:06;;;;;;;0.10;0.10;;;9.40;99.90;;;;;;5088994;28;20030;-84
2023/11/05 00:27:32;;;;;;;0.05;0.05;;;9.40;99.90;;;;;;5090678;28;20095;-85
2023/11/05 00:29:58;;;;;;;0.10;0.10;;;9.40;99.90;;;;;;5090477;28;20027;-84
2023/11/05 00:32:24;;;;;;;0.00;0.00;;;9.40;99.90;;;;;;5090177;28;20085;-84
2023/11/05 00:34:50;;;;;;;0.00;0.00;;;9.40;99.90;;;;;;5097540;28;20161;-84
2023/11/05 00:37:15;;;;;;;0.00;0.00;;;9.30;99.90;;;;;;5089921;28;20584;-82
2023/11/05 00:39:43;;;;;;;0.10;0.10;;;9.30;99.90;;;;;;5082948;28;20805;-83
2023/11/05 00:42:08;;;;;;;0.00;0.00;;;9.30;99.90;;;;;;5097424;28;20024;-84
2023/11/05 00:44:34;;;;;;;0.00;0.00;;;9.30;99.90;;;;;;5096991;28;20096;-82
2023/11/05 00:46:59;;;;;;;0.00;0.00;;;9.30;99.90;;;;;;5091728;28;20298;-83
2023/11/05 00:49:25;;;;;;;0.00;0.00;;;9.40;99.90;;;;;;5087834;28;20118;-83
2023/11/05 00:51:51;;;;;;;0.00;0.00;;;9.40;99.90;;;;;;5089618;28;20031;-82
2023/11/05 00:54:16;;;;;;;0.10;0.10;;;9.40;99.90;;;;;;5092011;28;20035;-83
2023/11/05 00:56:42;;;;;;;0.05;0.05;;;9.30;99.90;;;;;;5084774;28;20654;-84
2023/11/05 00:59:08;;;;;;;0.05;0.05;;;9.40;99.90;;;;;;5095940;28;20494;-84
2023/11/05 01:01:33;;;;;;;0.10;0.10;;;9.40;99.90;;;;;;5098639;28;20032;-84
2023/11/05 01:03:59;;;;;;;0.00;0.00;;;9.40;99.90;;;;;;5098010;28;20030;-84
2023/11/05 01:06:25;;;;;;;0.00;0.00;;;9.40;99.90;;;;;;5086965;28;20379;-85
2023/11/05 01:08:50;;;;;;;0.00;0.00;;;9.30;99.90;;;;;;5096278;28;20104;-84
2023/11/05 01:11:16;;;;;;;0.10;0.10;;;9.30;99.90;;;;;;5101689;28;20403;-84
2023/11/05 01:13:42;;;;;;;0.00;0.00;;;9.40;99.90;;;;;;5097672;28;20040;-83
2023/11/05 01:16:08;;;;;;;0.10;0.10;;;9.40;99.90;;;;;;5098256;28;20019;-83
2023/11/05 01:18:33;;;;;;;0.00;0.00;;;9.50;99.90;;;;;;5102642;28;20117;-84
2023/11/05 01:20:59;;;;;;;0.10;0.10;;;9.50;99.90;;;;;;5100424;28;20020;-83
2023/11/05 01:23:24;;;;;;;0.10;0.10;;;9.50;99.90;;;;;;5089664;28;20035;-84
2023/11/05 01:25:50;;;;;;;0.10;0.10;;;9.60;99.90;;;;;;5101613;28;20031;-84
2023/11/05 01:28:16;;;;;;;0.00;0.00;;;9.70;99.90;;;;;;5101493;28;20028;-83
2023/11/05 01:30:41;;;;;;;0.05;0.05;;;9.70;99.90;;;;;;5101189;28;20036;-84
2023/11/05 01:33:07;;;;;;;1.20;1.10;;;9.70;99.90;;;;;;5089566;28;20024;-85
2023/11/05 01:35:33;;;;;;;0.00;0.00;;;9.60;99.90;;;;;;5096694;28;20039;-84
2023/11/05 01:37:58;;;;;;;0.10;0.10;;;9.70;99.90;;;;;;5094743;28;20027;-83
2023/11/05 01:40:24;;;;;;;0.10;0.10;;;9.60;99.90;;;;;;5093346;28;20039;-83
2023/11/05 01:42:52;;;;;;;0.10;0.10;;;9.40;99.90;;;;;;5098637;28;20036;-84
2023/11/05 01:45:18;;;;;;;0.10;0.10;;;9.30;99.90;;;;;;5091869;28;20741;-84
2023/11/05 01:47:44;;;;;;;0.10;0.10;;;9.30;99.90;;;;;;5085879;28;20040;-84
2023/11/05 01:50:11;;;;;;;0.52;0.52;;;9.30;99.90;;;;;;5095619;28;20032;-83
2023/11/05 01:52:37;;;;;;;0.10;0.10;;;9.40;99.90;;;;;;5092737;28;20068;-85
2023/11/05 01:55:03;;;;;;;0.10;0.10;;;9.30;99.90;;;;;;5086564;28;20028;-85
2023/11/05 01:57:29;;;;;;;0.10;0.10;;;9.40;99.90;;;;;;5087630;28;20032;-84
2023/11/05 01:59:55;;;;;;;0.10;0.10;;;9.40;99.90;;;;;;5089137;28;20043;-84
2023/11/05 02:02:22;;;;;;;0.08;0.08;;;9.40;99.90;;;;;;5098045;28;20036;-84
2023/11/05 02:04:47;;;;;;;;;;;9.40;99.90;;;;;;5090485;28;20034;-85
2023/11/05 02:07:13;;;;;;;0.00;0.00;;;9.40;99.90;;;;;;5089696;28;19919;-84
2023/11/05 02:09:39;;;;;;;0.05;0.05;;;9.60;99.90;;;;;;5088296;28;20047;-84
2023/11/05 02:12:04;;;;;;;0.10;0.10;;;9.60;99.90;;;;;;5085821;28;20145;-84
2023/11/05 02:14:30;;;;;;;0.00;0.00;;;9.70;99.90;;;;;;5091744;28;20024;-84
2023/11/05 02:16:56;;;;;;;0.10;0.10;;;9.60;99.90;;;;;;5090300;28;20039;-83
2023/11/05 02:19:21;;;;;;;0.00;0.00;;;9.50;99.90;;;;;;5086000;28;20204;-82
2023/11/05 02:21:52;;;;;;;0.10;0.10;;;9.50;99.90;;;;;;5085545;28;20487;-84
2023/11/05 02:24:17;;;;;;;0.10;0.10;;;9.40;99.90;;;;;;5101085;28;20289;-83
2023/11/05 02:26:58;;;;;;;0.00;0.00;;;9.40;99.90;;;;;;5092597;28;20039;-83
2023/11/05 02:29:23;;;;;;;0.00;0.00;;;9.50;99.90;;;;;;5087719;28;20020;-84
2023/11/05 02:31:49;;;;;;;0.10;0.10;;;9.60;99.90;;;;;;5096335;28;20031;-84
2023/11/05 02:34:15;;;;;;;0.00;0.00;;;9.50;99.90;;;;;;5087485;28;20029;-83
2023/11/05 02:36:41;;;;;;;0.10;0.10;;;9.50;99.90;;;;;;5097984;28;20747;-84
2023/11/05 02:39:07;;;;;;;0.00;0.00;;;9.60;99.90;;;;;;5097807;28;20028;-83
2023/11/05 02:41:34;;;;;;;0.10;0.10;;;9.70;99.90;;;;;;5090264;28;20125;-84
2023/11/05 02:43:59;;;;;;;0.05;0.05;;;9.70;99.90;;;;;;5084898;28;20023;-84
2023/11/05 02:46:25;;;;;;;0.00;0.00;;;9.80;99.90;;;;;;5085175;28;20816;-83
2023/11/05 02:48:51;;;;;;;0.00;0.00;;;9.80;99.90;;;;;;5088982;28;20081;-84
2023/11/05 02:51:17;;;;;;;0.10;0.10;;;9.80;99.90;;;;;;5090054;28;20028;-83
2023/11/05 02:53:42;;;;;;;0.10;0.10;;;9.90;99.90;;;;;;5093892;28;20027;-84
2023/11/05 02:56:08;;;;;;;0.00;0.00;;;9.80;99.90;;;;;;5090795;28;20028;-83
2023/11/05 02:58:35;;;;;;;0.10;0.10;;;9.80;99.90;;;;;;5087813;28;20023;-83
2023/11/05 03:01:01;;;;;;;0.00;0.00;;;9.70;99.90;;;;;;5084890;28;20056;-84
2023/11/05 03:03:28;;;;;;;0.10;0.10;;;9.60;99.90;;;;;;5088707;28;20028;-84
2023/11/05 03:05:53;;;;;;;0.10;0.10;;;9.50;99.90;;;;;;5091155;28;20115;-84
2023/11/05 03:08:19;;;;;;;0.10;0.10;;;9.50;99.90;;;;;;5087858;28;20145;-84
2023/11/05 03:10:45;;;;;;;0.00;0.00;;;9.50;99.90;;;;;;5094887;28;20023;-84
2023/11/05 03:13:10;;;;;;;0.00;0.00;;;9.50;99.90;;;;;;5092438;28;20398;-84
2023/11/05 03:15:36;;;;;;;0.00;0.00;;;9.40;99.90;;;;;;5084220;28;20026;-83
2023/11/05 09:46:17;;;;;;;1.70;1.60;;;10.40;99.90;;;;;;4937718;28;1521689;-77
2023/11/05 09:48:44;;;;;;;0.10;0.10;;;10.80;99.90;;;;;;4977414;28;20031;-78
2023/11/05 09:51:11;;;;;;;0.00;0.00;;;11.10;99.90;;;;;;4977239;28;20022;-78
2023/11/05 09:53:37;;;;;;;0.10;0.10;;;10.90;99.90;;;;;;4975277;28;20047;-78
2023/11/05 09:56:05;;;;;;;0.00;0.00;;;10.90;99.90;;;;;;4977212;28;20030;-77
2023/11/05 09:58:30;;;;;;;0.00;0.00;;;10.90;99.90;;;;;;4970231;28;20031;-77
2023/11/05 10:00:56;;;;;;;0.17;0.17;;;11.00;99.90;;;;;;4978454;28;20061;-78
2023/11/05 10:03:25;;;;;;;0.10;0.10;;;11.00;99.90;;;;;;4979023;28;20081;-78
2023/11/05 10:05:53;;;;;;;0.10;0.10;;;11.50;99.90;;;;;;4978591;28;20141;-77
2023/11/05 10:08:22;;;;;;;0.10;0.10;;;11.40;99.90;;;;;;4978432;28;20778;-76
2023/11/05 10:10:48;;;;;;;0.00;0.00;;;11.10;99.90;;;;;;4975678;28;20023;-77
2023/11/05 10:13:15;;;;;;;0.10;0.10;;;10.90;99.90;;;;;;4980319;28;20031;-77
2023/11/05 10:15:42;;;;;;;0.10;0.10;;;10.80;99.90;;;;;;4976091;28;20090;-77
2023/11/05 10:18:18;;;;;;;0.10;0.10;;;10.70;99.90;;;;;;4979299;28;20030;-77
2023/11/05 10:20:50;;;;;;;0.00;0.00;;;11.40;99.90;;;;;;4979189;28;20046;-77
2023/11/05 10:23:16;;;;;;;0.00;0.00;;;11.60;99.90;;;;;;4979522;28;20093;-77
2023/11/05 10:25:47;;;;;;;0.00;0.00;;;11.50;99.90;;;;;;4980554;28;20034;-76
2023/11/05 10:28:13;;;;;;;0.10;0.10;;;11.00;99.90;;;;;;4979570;28;20493;-77
2023/11/05 10:42:51;;;;;;;0.10;0.10;;;12.00;99.90;;;;;;5065255;28;20403;-75
2023/11/05 10:45:25;;;;;;;0.00;0.00;;;12.70;99.90;;;;;;5064655;28;20021;-75
2023/11/05 10:47:51;;;;;;;0.10;0.10;;;12.40;99.90;;;;;;5063425;28;20118;-76
2023/11/05 10:50:20;;;;;;;0.00;0.00;;;12.40;99.90;;;;;;5063051;28;20033;-75
2023/11/05 10:52:49;;;;;;;0.00;0.00;;;12.30;99.90;;;;;;5064184;28;20120;-76
2023/11/05 10:55:17;;;;;;;0.10;0.10;;;12.40;99.90;;;;;;5064460;28;20023;-75
2023/11/05 10:57:47;;;;;;;0.00;0.00;;;12.50;99.90;;;;;;5064040;28;20037;-75
2023/11/05 11:00:16;;;;;;;0.00;0.00;;;12.70;99.90;;;;;;5067377;28;20096;-75
2023/11/05 11:02:42;;;;;;;0.10;0.10;;;12.90;99.90;;;;;;5069544;28;20065;-75
2023/11/05 11:05:13;;;;;;;0.00;0.00;;;13.10;99.90;;;;;;5064111;28;20016;-83
2023/11/05 11:07:42;;;;;;;0.00;0.00;;;13.00;99.90;;;;;;5060157;28;20439;-76
2023/11/05 11:10:20;;;;;;;0.10;0.10;;;13.50;99.90;;;;;;5064043;28;20032;-77
2023/11/05 11:12:45;;;;;;;0.10;0.10;;;13.50;99.90;;;;;;5064048;28;20067;-76
2023/11/05 11:15:32;;;;;;;0.10;0.10;;;14.00;99.90;;;;;;5068591;28;20056;-74
2023/11/05 11:18:02;;;;;;;0.00;0.00;;;13.60;99.90;;;;;;5059332;28;20033;-75
2023/11/05 11:20:31;;;;;;;0.00;0.00;;;13.20;99.90;;;;;;5069519;28;20112;-74
2023/11/05 11:23:02;;;;;;;0.05;0.05;;;13.30;99.90;;;;;;5066294;28;20082;-74
2023/11/05 11:25:33;;;;;;;0.00;0.00;;;13.00;99.90;;;;;;5064248;28;20028;-76
2023/11/05 11:28:00;;;;;;;0.10;0.10;;;13.10;99.90;;;;;;5066227;28;20529;-75
2023/11/05 11:30:26;;;;;;;0.00;0.00;;;13.20;99.90;;;;;;5063120;28;20035;-76
2023/11/05 11:32:53;;;;;;;0.10;0.10;;;13.10;99.90;;;;;;5060983;28;20047;-78
2023/11/05 11:35:20;;;;;;;0.00;0.00;;;13.20;99.90;;;;;;5065440;28;20024;-76
2023/11/05 11:37:45;;;;;;;;;;;13.00;99.90;;;;;;5061691;28;20075;-76
2023/11/05 11:40:14;;;;;;;0.10;0.10;;;12.60;99.90;;;;;;5062082;28;19944;-76
2023/11/05 11:42:40;;;;;;;0.10;0.10;;;12.20;99.90;;;;;;5058779;28;20110;-76
2023/11/05 11:45:06;;;;;;;0.00;0.00;;;11.20;99.90;;;;;;5047493;28;20025;-76
2023/11/05 11:47:33;;;;;;;0.10;0.10;;;11.10;99.90;;;;;;5049595;28;20033;-76
2023/11/05 11:50:05;;;;;;;0.08;0.08;;;11.10;99.90;;;;;;5049373;28;20048;-76
2023/11/05 11:52:33;;;;;;;0.00;0.00;;;11.40;99.90;;;;;;5048266;28;20040;-76
2023/11/05 11:54:58;;;;;;;0.00;0.00;;;11.60;99.90;;;;;;5048922;28;20041;-76
2023/11/05 11:57:26;;;;;;;0.10;0.10;;;11.70;99.90;;;;;;5049990;28;20688;-76
2023/11/05 11:59:51;;;;;;;0.10;0.10;;;11.50;99.90;;;;;;5048945;28;20047;-75
2023/11/05 12:02:18;;;;;;;0.07;0.07;;;11.80;99.90;;;;;;5049034;28;20025;-76
2023/11/05 12:04:44;;;;;;;0.10;0.10;;;11.80;99.90;;;;;;5049387;28;20036;-76
2023/11/05 12:07:11;;;;;;;0.00;0.00;;;11.30;99.90;;;;;;5049207;28;20037;-77
2023/11/05 12:09:40;;;;;;;0.97;0.97;;;10.70;99.90;;;;;;5049391;28;20695;-75
2023/11/05 12:12:06;;;;;;;0.10;0.10;;;10.40;99.90;;;;;;5049456;28;20487;-76
2023/11/05 12:14:32;;;;;;;0.10;0.10;;;10.70;99.90;;;;;;5047280;28;20126;-75
2023/11/05 12:16:58;;;;;;;0.10;0.10;;;10.70;99.90;;;;;;5048451;28;20032;-75
2023/11/05 12:19:24;;;;;;;0.10;0.10;;;10.90;99.90;;;;;;5048200;28;20040;-77
2023/11/05 12:21:50;;;;;;;0.10;0.10;;;10.90;99.90;;;;;;5043055;28;20029;-76
2023/11/05 12:24:16;;;;;;;0.10;0.10;;;11.10;99.90;;;;;;5046093;28;20148;-76
2023/11/05 12:26:42;;;;;;;0.65;0.65;;;10.90;99.90;;;;;;5054237;28;20032;-76
2023/11/05 12:29:12;;;;;;;0.03;0.03;;;10.90;99.90;;;;;;5049110;28;20499;-74
2023/11/05 12:31:41;;;;;;;0.10;0.10;;;10.90;99.90;;;;;;5046405;28;20025;-74
2023/11/05 12:34:08;;;;;;;0.10;0.10;;;10.70;99.90;;;;;;5047187;28;20021;-74
2023/11/05 12:36:34;;;;;;;0.10;0.10;;;10.60;99.90;;;;;;5050511;28;20056;-74
2023/11/05 12:39:00;;;;;;;0.10;0.10;;;11.00;99.90;;;;;;5048483;28;20909;-75
2023/11/05 12:41:26;;;;;;;0.00;0.00;;;11.30;99.90;;;;;;5045647;28;20048;-74
2023/11/05 12:43:52;;;;;;;0.00;0.00;;;11.70;99.90;;;;;;5043801;28;20033;-75
2023/11/05 12:46:18;;;;;;;0.10;0.10;;;11.80;99.90;;;;;;5047961;28;20282;-75
2023/11/05 12:48:43;;;;;;;0.00;0.00;;;12.10;99.90;;;;;;5045275;28;20036;-75
2023/11/05 12:51:09;;;;;;;0.10;0.10;;;12.20;99.90;;;;;;5041753;28;20076;-75
2023/11/05 12:53:35;;;;;;;0.00;0.00;;;12.00;99.90;;;;;;5047184;28;20024;-75
2023/11/05 12:56:08;;;;;;;0.10;0.10;;;11.50;99.90;;;;;;5047674;28;20036;-74
2023/11/05 12:58:36;;;;;;;0.10;0.10;;;11.80;99.90;;;;;;5049468;28;20562;-75
2023/11/05 13:01:03;;;;;;;0.10;0.10;;;12.00;99.90;;;;;;5048645;28;20032;-74
2023/11/05 13:03:30;;;;;;;0.10;0.10;;;12.30;99.90;;;;;;5046360;28;20048;-74
2023/11/05 13:05:56;;;;;;;0.10;0.10;;;12.40;99.90;;;;;;5046365;28;20029;-74
2023/11/05 13:08:22;;;;;;;0.10;0.10;;;12.40;99.90;;;;;;5048386;28;20303;-74
2023/11/05 13:10:48;;;;;;;0.10;0.10;;;12.30;99.90;;;;;;5045144;28;20112;-74
2023/11/05 13:13:14;;;;;;;0.00;0.00;;;12.50;99.90;;;;;;5048280;28;20033;-75
2023/11/05 13:15:40;;;;;;;0.10;0.10;;;12.40;99.90;;;;;;5048465;28;20414;-75
2023/11/05 13:18:07;;;;;;;0.10;0.10;;;12.40;99.90;;;;;;5042985;28;20020;-75
2023/11/05 13:20:32;;;;;;;0.00;0.00;;;12.30;99.90;;;;;;5048326;28;20039;-75
2023/11/05 13:23:01;;;;;;;0.00;0.00;;;12.40;99.90;;;;;;5047959;28;20033;-75
2023/11/05 13:25:28;;;;;;;0.10;0.10;;;12.40;99.90;;;;;;5038156;28;20105;-75
2023/11/05 13:27:54;;;;;;;0.10;0.10;;;12.40;99.90;;;;;;5048834;28;20025;-74
2023/11/05 13:30:22;;;;;;;0.10;0.10;;;12.60;99.90;;;;;;5047465;28;20090;-74
2023/11/05 13:32:47;;;;;;;0.40;0.40;;;12.30;99.90;;;;;;5040274;28;20021;-74
2023/11/05 13:35:20;;;;;;;0.10;0.10;;;11.90;99.90;;;;;;5045227;28;20083;-74
2023/11/05 13:37:46;;;;;;;0.10;0.10;;;11.70;99.90;;;;;;5036379;28;20021;-75
2023/11/05 13:40:12;;;;;;;0.00;0.00;;;11.60;99.90;;;;;;5053459;28;20039;-74
2023/11/05 13:42:39;;;;;;;0.10;0.10;;;11.60;99.90;;;;;;5052825;28;20777;-75
2023/11/05 13:45:05;;;;;;;0.10;0.10;;;11.70;99.90;;;;;;5049317;28;20036;-75
2023/11/05 13:47:34;;;;;;;0.00;0.00;;;11.60;99.90;;;;;;5047563;28;20033;-74
2023/11/05 13:50:00;;;;;;;0.10;0.10;;;11.60;99.90;;;;;;5049207;28;20111;-74
2023/11/05 13:52:26;;;;;;;0.10;0.10;;;11.60;99.90;;;;;;5049110;28;20140;-74
2023/11/05 13:54:52;;;;;;;0.10;0.10;;;11.60;99.90;;;;;;5049989;28;20100;-74
2023/11/05 13:57:18;;;;;;;0.00;0.00;;;11.60;99.90;;;;;;5049551;28;20013;-74
2023/11/05 13:59:47;;;;;;;0.00;0.00;;;11.60;99.90;;;;;;5048514;28;20024;-75
2023/11/05 14:02:13;;;;;;;0.10;0.10;;;11.90;99.90;;;;;;5049106;28;20032;-75
2023/11/05 14:04:39;;;;;;;0.10;0.10;;;12.10;99.90;;;;;;5047661;28;20032;-75
2023/11/05 14:07:05;;;;;;;0.07;0.07;;;12.10;99.90;;;;;;5040846;28;20529;-75
2023/11/05 14:09:31;;;;;;;0.10;0.10;;;12.00;99.90;;;;;;5046543;28;20421;-75
2023/11/05 14:12:02;;;;;;;0.10;0.10;;;11.90;99.90;;;;;;5047934;28;20033;-74
2023/11/05 14:14:29;;;;;;;0.03;0.03;;;11.90;99.90;;;;;;5048672;28;20484;-74
2023/11/05 14:16:55;;;;;;;0.10;0.10;;;11.80;99.90;;;;;;5048056;28;20056;-75
2023/11/05 14:19:22;;;;;;;3.10;0.98;;;11.90;99.90;;;;;;5052856;28;20052;-75
2023/11/05 14:21:48;;;;;;;;;;;11.80;99.90;;;;;;5053489;28;20040;-75
2023/11/05 14:24:14;;;;;;;0.00;0.00;;;11.70;99.90;;;;;;5049639;28;19916;-75
2023/11/05 14:26:40;;;;;;;0.07;0.07;;;11.60;99.90;;;;;;5047799;28;20037;-75
2023/11/05 14:29:05;;;;;;;0.07;0.07;;;11.70;99.90;;;;;;5054034;28;20029;-75
2023/11/05 14:31:31;;;;;;;0.20;0.20;;;11.80;99.90;;;;;;5045729;28;20120;-75
2023/11/05 14:33:57;;;;;;;0.00;0.00;;;11.70;99.90;;;;;;5047943;28;20028;-75
2023/11/05 14:36:23;;;;;;;0.47;0.47;;;11.60;99.90;;;;;;5052398;28;20021;-74
2023/11/05 14:38:49;;;;;;;0.10;0.10;;;11.60;99.90;;;;;;5055372;28;20041;-75
2023/11/05 14:41:15;;;;;;;0.10;0.10;;;11.50;99.90;;;;;;5047498;28;20112;-75
2023/11/05 14:43:40;;;;;;;0.00;0.00;;;11.50;99.90;;;;;;5050281;28;20053;-75
2023/11/05 14:46:06;;;;;;;0.00;0.00;;;11.60;99.90;;;;;;5050152;28;20226;-75
2023/11/05 14:48:32;;;;;;;0.00;0.00;;;11.60;99.90;;;;;;5045353;28;20135;-75
2023/11/05 14:50:58;;;;;;;0.10;0.10;;;11.50;99.90;;;;;;5051705;28;20029;-75
2023/11/05 14:53:25;;;;;;;0.00;0.00;;;11.50;99.90;;;;;;5053637;28;20020;-75
2023/11/05 14:55:51;;;;;;;;;;;11.50;99.90;;;;;;5051130;28;20036;-75
2023/11/05 14:58:19;;;;;;;0.10;0.10;;;11.60;99.90;;;;;;5052682;28;19909;-76
2023/11/05 15:00:46;;;;;;;0.10;0.10;;;11.50;99.90;;;;;;5051768;28;20545;-75
2023/11/05 15:03:11;;;;;;;0.08;0.08;;;11.60;99.90;;;;;;5050294;28;20502;-76
2023/11/05 15:05:37;;;;;;;0.10;0.10;;;11.70;99.90;;;;;;5039912;28;20037;-75
2023/11/05 15:08:03;;;;;;;0.07;0.07;;;11.70;99.90;;;;;;5046869;28;20029;-76
2023/11/05 15:10:29;;;;;;;0.10;0.10;;;11.70;99.90;;;;;;5043572;28;20060;-76
2023/11/05 15:12:55;;;;;;;0.10;0.10;;;11.70;99.90;;;;;;5054611;28;20031;-76
2023/11/05 15:15:21;;;;;;;0.10;0.10;;;11.70;99.90;;;;;;5051398;28;20268;-75
2023/11/05 15:17:46;;;;;;;0.00;0.00;;;11.70;99.90;;;;;;5048187;28;20108;-76
2023/11/05 15:20:12;;;;;;;0.00;0.00;;;11.70;99.90;;;;;;5058491;28;20005;-75
2023/11/05 15:22:41;;;;;;;0.10;0.10;;;11.50;99.90;;;;;;5057323;28;20080;-75
2023/11/05 15:25:07;;;;;;;0.10;0.10;;;11.40;99.90;;;;;;5057094;28;20024;-75
2023/11/05 15:27:33;;;;;;;0.10;0.10;;;11.20;99.90;;;;;;5057502;28;20020;-76
2023/11/05 15:29:59;;;;;;;0.10;0.10;;;11.00;99.90;;;;;;5058109;28;20092;-75
2023/11/05 15:32:25;;;;;;;0.03;0.03;;;11.20;99.90;;;;;;5057350;28;20813;-75
2023/11/05 15:34:51;;;;;;;0.10;0.10;;;11.30;99.90;;;;;;5055002;28;20605;-75
2023/11/05 15:37:17;;;;;;;0.10;0.10;;;11.30;99.90;;;;;;5055940;28;20128;-75
2023/11/05 15:39:43;;;;;;;0.10;0.10;;;11.30;99.90;;;;;;5055993;28;20017;-76
2023/11/05 15:42:08;;;;;;;0.10;0.10;;;11.20;99.90;;;;;;5056698;28;20102;-75
2023/11/05 15:44:34;;;;;;;0.10;0.10;;;11.10;99.90;;;;;;5055419;28;20025;-75
2023/11/05 15:47:01;;;;;;;0.10;0.10;;;11.10;99.90;;;;;;5054740;28;20032;-75
2023/11/05 15:49:27;;;;;;;0.10;0.10;;;11.10;99.90;;;;;;5055633;28;20032;-76
2023/11/05 15:51:53;;;;;;;0.00;0.00;;;11.10;99.90;;;;;;5057597;28;20488;-75
2023/11/05 15:54:19;;;;;;;0.08;0.08;;;11.00;99.90;;;;;;5053139;28;20025;-75
2023/11/05 15:56:45;;;;;;;0.00;0.00;;;11.00;99.90;;;;;;5054318;28;20043;-75
2023/11/05 15:59:10;;;;;;;1.50;1.40;;;11.00;99.90;;;;;;5048411;28;20092;-75
2023/11/05 16:01:36;;;;;;;0.10;0.10;;;10.90;99.90;;;;;;5050161;28;20040;-75
2023/11/05 16:04:02;;;;;;;0.10;0.10;;;10.90;99.90;;;;;;5053986;28;20025;-75
2023/11/05 16:06:27;;;;;;;0.10;0.10;;;10.90;99.90;;;;;;5053962;28;20024;-75
2023/11/05 16:08:55;;;;;;;0.10;0.10;;;10.90;99.90;;;;;;5047513;28;20127;-75
2023/11/05 16:11:21;;;;;;;0.00;0.00;;;10.90;99.90;;;;;;5052753;28;20705;-75
2023/11/05 16:13:47;;;;;;;0.07;0.07;;;10.90;99.90;;;;;;5046454;28;20116;-75
2023/11/05 16:16:12;;;;;;;0.00;0.00;;;10.90;99.90;;;;;;5049018;28;20420;-75
2023/11/05 16:18:39;;;;;;;0.00;0.00;;;10.90;99.90;;;;;;5042476;28;20028;-75
2023/11/05 16:21:04;;;;;;;0.10;0.10;;;10.80;99.90;;;;;;5047670;28;20155;-76
2023/11/05 16:23:30;;;;;;;0.00;0.00;;;10.80;99.90;;;;;;5049354;28;20041;-76
2023/11/05 16:25:55;;;;;;;0.00;0.00;;;10.70;99.90;;;;;;5049791;28;20025;-75
2023/11/05 16:28:24;;;;;;;0.10;0.10;;;10.70;99.90;;;;;;5049246;28;20059;-76
2023/11/05 16:30:50;;;;;;;0.10;0.10;;;10.80;99.90;;;;;;5047322;28;20033;-76
2023/11/05 16:33:16;;;;;;;0.10;0.10;;;10.70;99.90;;;;;;5049395;28;20029;-76
2023/11/05 16:35:41;;;;;;;0.00;0.00;;;10.80;99.90;;;;;;5047519;28;20059;-76
2023/11/05 16:38:08;;;;;;;0.10;0.10;;;10.80;99.90;;;;;;5046250;28;20704;-76
2023/11/05 16:40:36;;;;;;;0.05;0.05;;;10.70;99.90;;;;;;5042382;28;20113;-76
2023/11/05 16:43:02;;;;;;;0.10;0.10;;;10.70;99.90;;;;;;5040319;28;20036;-75
2023/11/05 16:45:28;;;;;;;0.10;0.10;;;10.70;99.90;;;;;;5047353;28;20029;-76
2023/11/05 16:47:54;;;;;;;;;;;10.70;99.90;;;;;;5052817;28;20025;-75
2023/11/05 16:50:20;;;;;;;1.30;0.93;;;10.70;99.90;;;;;;5049034;28;19913;-78
2023/11/05 16:52:46;;;;;;;0.17;0.17;;;10.70;99.90;;;;;;5060428;28;20597;-78
2023/11/05 16:55:12;;;;;;;0.20;0.20;;;10.70;99.90;;;;;;5050152;28;20037;-77
2023/11/05 16:57:37;;;;;;;0.10;0.10;;;10.70;99.90;;;;;;5047572;28;20025;-78
2023/11/05 17:00:05;;;;;;;0.85;0.68;;;10.70;99.90;;;;;;5043804;28;20590;-78
2023/11/05 17:02:31;;;;;;;0.10;0.10;;;10.70;99.90;;;;;;5044034;28;20032;-76
2023/11/05 17:04:57;;;;;;;0.30;0.30;;;10.70;99.90;;;;;;5048499;28;20112;-76
2023/11/05 17:07:23;;;;;;;0.13;0.13;;;10.70;99.90;;;;;;5046997;28;20037;-76
2023/11/05 17:09:48;;;;;;;0.10;0.10;;;10.70;99.90;;;;;;5045994;28;20544;-76
2023/11/05 17:12:14;;;;;;;0.10;0.10;;;10.70;99.90;;;;;;5047733;28;20037;-76
2023/11/05 17:14:41;;;;;;;0.10;0.10;;;10.70;99.90;;;;;;5046698;28;20039;-76
2023/11/05 17:17:06;;;;;;;0.10;0.10;;;10.60;99.90;;;;;;5047128;28;20095;-76
2023/11/05 17:19:32;;;;;;;0.10;0.10;;;10.50;99.90;;;;;;5045998;28;20056;-76
2023/11/05 17:21:58;;;;;;;0.10;0.10;;;10.60;99.90;;;;;;5046626;28;20025;-75
2023/11/05 17:24:24;;;;;;;0.10;0.10;;;10.60;99.90;;;;;;5045547;28;20158;-77
2023/11/05 17:26:50;;;;;;;0.00;0.00;;;10.60;99.90;;;;;;5047434;28;20098;-76
2023/11/05 17:29:18;;;;;;;0.15;0.15;;;10.50;99.90;;;;;;5047416;28;20529;-75
2023/11/05 17:31:43;;;;;;;0.00;0.00;;;10.50;99.90;;;;;;5047598;28;20029;-76
2023/11/05 17:34:10;;;;;;;0.67;0.67;;;10.50;99.90;;;;;;5046996;28;20765;-75
2023/11/05 17:36:35;;;;;;;8.40;3.45;;;10.60;99.90;;;;;;5047877;28;20025;-76
2023/11/05 17:39:02;;;;;;;0.03;0.03;;;10.60;99.90;;;;;;5047868;28;20563;-76
2023/11/05 17:41:28;;;;;;;0.10;0.10;;;10.50;99.90;;;;;;5040880;28;20508;-76
2023/11/05 17:43:55;;;;;;;0.08;0.08;;;10.50;99.90;;;;;;5044660;28;20111;-76
2023/11/05 17:46:20;;;;;;;0.10;0.10;;;10.50;99.90;;;;;;5047277;28;20171;-76
2023/11/05 17:48:46;;;;;;;0.10;0.10;;;10.40;99.90;;;;;;5047695;28;20108;-77
2023/11/05 17:51:12;;;;;;;0.10;0.10;;;10.40;99.90;;;;;;5044700;28;20034;-76
2023/11/05 17:53:38;;;;;;;0.10;0.10;;;10.40;99.90;;;;;;5042740;28;20788;-75
2023/11/05 17:56:05;;;;;;;0.10;0.10;;;10.40;99.90;;;;;;5046885;28;20075;-76
2023/11/05 17:58:33;;;;;;;0.10;0.10;;;10.40;99.90;;;;;;5041214;28;20228;-74
2023/11/05 18:00:59;;;;;;;0.00;0.00;;;10.40;99.90;;;;;;5046868;28;20138;-75
2023/11/05 18:03:25;;;;;;;0.10;0.10;;;10.50;99.90;;;;;;5045147;28;20029;-74
2023/11/05 18:05:51;;;;;;;0.10;0.10;;;10.50;99.90;;;;;;5046582;28;20035;-75
2023/11/05 18:08:16;;;;;;;0.10;0.10;;;10.50;99.90;;;;;;5044210;28;20035;-75
2023/11/05 18:10:42;;;;;;;0.10;0.10;;;10.50;99.90;;;;;;5046568;28;20037;-74
2023/11/05 18:13:08;;;;;;;0.00;0.00;;;10.50;99.90;;;;;;5046203;28;20032;-74
2023/11/05 18:15:33;;;;;;;0.10;0.10;;;10.50;99.90;;;;;;5043817;28;20669;-74
2023/11/05 18:18:00;;;;;;;0.00;0.00;;;10.40;99.90;;;;;;5048966;28;20028;-74
2023/11/05 18:20:27;;;;;;;0.00;0.00;;;10.30;99.90;;;;;;5047891;28;20090;-74
2023/11/05 18:22:53;;;;;;;0.10;0.10;;;10.30;99.90;;;;;;5049693;28;20384;-74
2023/11/05 18:25:19;;;;;;;0.00;0.00;;;10.40;99.90;;;;;;5049423;28;20112;-74
2023/11/05 18:27:44;;;;;;;0.00;0.00;;;10.40;99.90;;;;;;5049733;28;20036;-74
2023/11/05 18:30:11;;;;;;;0.10;0.10;;;10.40;99.90;;;;;;5047180;28;20027;-74
2023/11/05 18:32:36;;;;;;;0.10;0.10;;;10.40;99.90;;;;;;5042649;28;20090;-74
2023/11/05 18:35:05;;;;;;;0.00;0.00;;;10.40;99.90;;;;;;5046506;28;20021;-74
2023/11/05 18:37:31;;;;;;;0.00;0.00;;;10.40;99.90;;;;;;5046459;28;20029;-74
2023/11/05 18:39:57;;;;;;;0.10;0.10;;;10.30;99.90;;;;;;5042120;28;20063;-74
2023/11/05 18:42:22;;;;;;;0.00;0.00;;;10.40;99.90;;;;;;5047539;28;20986;-74
2023/11/05 18:44:48;;;;;;;0.00;0.00;;;10.40;99.90;;;;;;5047248;28;20036;-74
2023/11/05 18:47:14;;;;;;;0.00;0.00;;;10.40;99.90;;;;;;5046146;28;20054;-74
2023/11/05 18:49:42;;;;;;;0.00;0.00;;;10.40;99.90;;;;;;5046938;28;20753;-74
2023/11/05 18:52:10;;;;;;;0.10;0.10;;;10.30;99.90;;;;;;5047130;28;20029;-74
2023/11/05 18:54:35;;;;;;;0.10;0.10;;;10.40;99.90;;;;;;5049986;28;20061;-74
2023/11/05 18:57:01;;;;;;;0.10;0.10;;;10.30;99.90;;;;;;5050279;28;20056;-74
2023/11/05 18:59:27;;;;;;;0.10;0.10;;;10.30;99.90;;;;;;5046991;28;20519;-75
2023/11/05 19:01:53;;;;;;;0.30;0.30;;;10.30;99.90;;;;;;5048662;28;20756;-75
2023/11/05 19:04:19;;;;;;;0.10;0.10;;;10.30;99.90;;;;;;5039320;28;20108;-76
2023/11/05 19:06:45;;;;;;;0.00;0.00;;;10.30;99.90;;;;;;5049880;28;20092;-75
2023/11/05 19:09:10;;;;;;;0.20;0.20;;;10.20;99.90;;;;;;5044434;28;20021;-75
2023/11/05 19:11:36;;;;;;;0.00;0.00;;;10.30;99.90;;;;;;5044190;28;20048;-75
2023/11/05 19:14:03;;;;;;;1.50;0.67;;;10.10;99.90;;;;;;5050065;28;20515;-76
2023/11/05 19:16:28;;;;;;;0.10;0.10;;;10.10;99.90;;;;;;5050081;28;20029;-75
2023/11/05 19:18:54;;;;;;;0.00;0.00;;;10.20;99.90;;;;;;5048875;28;20174;-75
2023/11/05 19:21:20;;;;;;;0.10;0.10;;;10.20;99.90;;;;;;5045616;28;20036;-74
2023/11/05 19:23:45;;;;;;;0.10;0.10;;;10.10;99.90;;;;;;5050337;28;20033;-74
2023/11/05 19:26:11;;;;;;;0.00;0.00;;;10.20;99.90;;;;;;5043092;28;20032;-76